Time;durP1;ratioP1;P1;durP2;ratioP2;P2;SDS_P1;SDS_P2;PMS_P1;PMS_P2;Temp;Humidity;BMP_temperature;BMP_pressure;BME280_temperature;BME280_humidity;BME280_pressure;Samples;Min_cycle;Max_cycle;Signal;HPM_P1;HPM_P2
2021/10/31 00:01:16;;;;;;;30.93;27.93;;;;;;;;;;5076693;28;24495;-59
2021/10/31 00:03:41;;;;;;;32.60;29.30;;;;;;;;;;5073224;28;25700;-58
2021/10/31 00:06:06;;;;;;;33.07;29.87;;;;;;;;;;5070984;28;24880;-58
2021/10/31 00:08:31;;;;;;;34.57;31.17;;;;;;;;;;5071490;28;24426;-58
2021/10/31 00:10:57;;;;;;;32.65;29.45;;;;;;;;;;5092885;28;24421;-59
2021/10/31 00:13:23;;;;;;;32.75;29.58;;;;;;;;;;5091710;28;24425;-60
2021/10/31 00:15:48;;;;;;;33.83;30.42;;;;;;;;;;5077327;28;24407;-60
2021/10/31 00:18:13;;;;;;;33.93;30.60;;;;;;;;;;5067046;28;24418;-60
2021/10/31 00:20:38;;;;;;;33.92;30.63;;;;;;;;;;5080547;28;24932;-60
2021/10/31 00:23:04;;;;;;;34.00;30.77;;;;;;;;;;5081470;28;24446;-60
2021/10/31 00:25:29;;;;;;;32.20;29.00;;;;;;;;;;5084508;28;24410;-60
2021/10/31 00:27:54;;;;;;;31.83;28.63;;;;;;;;;;5071650;28;24463;-60
2021/10/31 00:30:19;;;;;;;30.95;27.95;;;;;;;;;;5078705;28;25004;-60
2021/10/31 00:32:44;;;;;;;32.67;29.40;;;;;;;;;;5081749;28;24441;-60
2021/10/31 00:35:09;;;;;;;31.85;28.80;;;;;;;;;;5072340;28;24791;-60
2021/10/31 00:37:34;;;;;;;33.60;30.20;;;;;;;;;;5069280;28;24464;-59
2021/10/31 00:40:00;;;;;;;33.58;30.33;;;;;;;;;;5079051;28;24422;-60
2021/10/31 00:42:25;;;;;;;33.50;30.10;;;;;;;;;;5070460;28;24524;-60
2021/10/31 00:44:50;;;;;;;34.85;31.55;;;;;;;;;;5081938;28;24709;-60
2021/10/31 00:47:15;;;;;;;34.60;31.20;;;;;;;;;;5085999;28;24420;-60
2021/10/31 00:49:40;;;;;;;33.97;30.67;;;;;;;;;;5081040;28;24463;-59
2021/10/31 00:52:06;;;;;;;35.20;31.80;;;;;;;;;;5063534;28;24506;-60
2021/10/31 00:54:31;;;;;;;36.03;32.50;;;;;;;;;;5078920;28;24467;-59
2021/10/31 00:56:57;;;;;;;33.90;30.60;;;;;;;;;;5066223;28;24437;-60
2021/10/31 00:59:22;;;;;;;37.53;33.92;;;;;;;;;;5063268;28;25233;-60
2021/10/31 01:01:49;;;;;;;35.47;31.77;;;;;;;;;;5080281;28;24447;-59
2021/10/31 01:04:20;;;;;;;35.53;32.00;;;;;;;;;;5081494;28;24970;-59
2021/10/31 01:06:57;;;;;;;36.28;32.80;;;;;;;;;;5067438;28;24445;-59
2021/10/31 01:09:26;;;;;;;36.08;32.38;;;;;;;;;;5088229;28;24780;-60
2021/10/31 01:11:57;;;;;;;35.40;32.00;;;;;;;;;;5083187;28;24532;-59
2021/10/31 01:14:30;;;;;;;32.77;29.50;;;;;;;;;;5061296;28;24964;-60
2021/10/31 01:17:02;;;;;;;35.00;31.40;;;;;;;;;;5077194;28;24560;-59
2021/10/31 01:19:33;;;;;;;35.00;31.52;;;;;;;;;;5067692;28;24905;-59
2021/10/31 01:22:04;;;;;;;34.30;30.80;;;;;;;;;;5067747;28;25006;-59
2021/10/31 01:24:29;;;;;;;34.50;31.10;;;;;;;;;;5079391;28;24862;-59
2021/10/31 01:27:18;;;;;;;36.03;32.43;;;;;;;;;;5069778;28;24971;-60
2021/10/31 01:29:59;;;;;;;35.80;32.35;;;;;;;;;;5066833;28;24414;-59
2021/10/31 01:32:36;;;;;;;35.45;32.05;;;;;;;;;;5066499;28;24492;-59
2021/10/31 01:35:07;;;;;;;34.47;31.08;;;;;;;;;;5083748;28;24414;-59
2021/10/31 01:37:35;;;;;;;35.10;31.63;;;;;;;;;;5077296;28;24508;-60
2021/10/31 01:40:06;;;;;;;36.60;33.10;;;;;;;;;;5069323;28;24446;-59
2021/10/31 01:42:36;;;;;;;34.38;31.17;;;;;;;;;;5065374;28;25016;-60
2021/10/31 01:45:31;;;;;;;33.42;30.13;;;;;;;;;;5077444;28;24417;-59
2021/10/31 01:48:05;;;;;;;35.63;32.17;;;;;;;;;;5065264;28;24441;-59
2021/10/31 01:50:30;;;;;;;37.08;33.47;;;;;;;;;;5080495;28;24991;-59
2021/10/31 01:52:59;;;;;;;37.90;34.03;;;;;;;;;;5067741;28;25103;-58
2021/10/31 01:55:29;;;;;;;40.05;36.05;;;;;;;;;;5072832;28;24499;-58
2021/10/31 01:57:56;;;;;;;37.45;33.75;;;;;;;;;;5066979;28;24414;-59
2021/10/31 02:00:22;;;;;;;39.25;35.35;;;;;;;;;;5073446;28;25008;-59
2021/10/31 02:02:47;;;;;;;39.25;35.25;;;;;;;;;;5069564;28;24403;-58
2021/10/31 02:05:15;;;;;;;38.30;34.50;;;;;;;;;;5068453;28;24414;-59
2021/10/31 02:07:44;;;;;;;37.47;33.78;;;;;;;;;;5078043;28;24781;-59
2021/10/31 02:10:11;;;;;;;37.50;33.60;;;;;;;;;;5072524;28;25443;-59
2021/10/31 02:12:37;;;;;;;38.30;34.50;;;;;;;;;;5065260;28;24418;-59
2021/10/31 02:15:03;;;;;;;40.35;36.35;;;;;;;;;;5068267;28;24525;-60
2021/10/31 02:17:30;;;;;;;38.10;34.45;;;;;;;;;;5079213;28;24908;-58
2021/10/31 02:19:56;;;;;;;37.93;34.20;;;;;;;;;;5070612;28;24570;-59
2021/10/31 02:22:28;;;;;;;39.37;35.47;;;;;;;;;;5076019;28;24972;-59
2021/10/31 02:24:54;;;;;;;38.10;34.25;;;;;;;;;;5063522;28;24395;-59
2021/10/31 02:27:20;;;;;;;40.77;36.97;;;;;;;;;;5060137;28;24591;-59
2021/10/31 02:29:46;;;;;;;40.03;36.13;;;;;;;;;;5062430;28;24406;-59
2021/10/31 02:32:11;;;;;;;41.47;37.33;;;;;;;;;;5082106;28;24472;-59
2021/10/31 02:34:36;;;;;;;40.97;36.87;;;;;;;;;;5067466;28;24440;-59
2021/10/31 02:37:01;;;;;;;39.93;35.83;;;;;;;;;;5063696;28;24452;-59
2021/10/31 02:39:26;;;;;;;41.67;37.53;;;;;;;;;;5057363;28;24437;-59
2021/10/31 02:41:51;;;;;;;39.63;35.83;;;;;;;;;;5076635;28;24422;-58
2021/10/31 02:44:17;;;;;;;40.78;36.88;;;;;;;;;;5072197;28;24410;-59
2021/10/31 02:46:42;;;;;;;42.73;38.43;;;;;;;;;;5069068;28;24968;-60
2021/10/31 02:49:07;;;;;;;39.10;35.30;;;;;;;;;;5068401;28;24467;-58
2021/10/31 02:51:51;;;;;;;42.70;38.50;;;;;;;;;;5068580;28;24506;-60
2021/10/31 02:54:20;;;;;;;41.80;37.70;;;;;;;;;;5079795;28;24815;-58
2021/10/31 02:56:49;;;;;;;40.95;36.75;;;;;;;;;;5075185;28;24422;-58
2021/10/31 02:59:43;;;;;;;40.08;36.17;;;;;;;;;;5082027;28;24426;-59
2021/10/31 03:02:09;;;;;;;41.70;37.63;;;;;;;;;;5054604;28;24484;-59
2021/10/31 03:04:35;;;;;;;43.70;39.33;;;;;;;;;;5068801;28;24488;-59
2021/10/31 03:07:01;;;;;;;43.90;39.60;;;;;;;;;;5087641;28;24438;-59
2021/10/31 03:09:27;;;;;;;39.90;35.80;;;;;;;;;;5096604;28;24994;-59
2021/10/31 03:11:59;;;;;;;43.73;39.53;;;;;;;;;;5075656;28;24422;-58
2021/10/31 03:14:24;;;;;;;43.28;38.83;;;;;;;;;;5077095;28;24438;-59
2021/10/31 03:16:49;;;;;;;42.60;38.38;;;;;;;;;;5064997;28;24721;-59
2021/10/31 03:19:14;;;;;;;41.10;36.80;;;;;;;;;;5075541;28;24488;-58
2021/10/31 03:21:39;;;;;;;44.70;40.27;;;;;;;;;;5081349;28;25018;-58
2021/10/31 03:24:05;;;;;;;47.03;42.33;;;;;;;;;;5080223;28;24414;-59
2021/10/31 03:26:30;;;;;;;41.37;37.20;;;;;;;;;;5074955;28;24457;-59
2021/10/31 03:28:55;;;;;;;44.83;40.47;;;;;;;;;;5074265;28;24452;-59
2021/10/31 03:31:20;;;;;;;42.97;38.88;;;;;;;;;;5071256;28;24468;-59
2021/10/31 03:33:45;;;;;;;44.53;40.13;;;;;;;;;;5068040;28;24414;-58
2021/10/31 03:36:11;;;;;;;46.00;41.33;;;;;;;;;;5081046;28;24406;-59
2021/10/31 03:38:36;;;;;;;42.80;38.50;;;;;;;;;;5079705;28;24438;-58
2021/10/31 03:41:01;;;;;;;43.70;39.30;;;;;;;;;;5069844;28;24465;-58
2021/10/31 03:43:26;;;;;;;44.00;39.50;;;;;;;;;;5073100;28;24468;-58
2021/10/31 03:45:51;;;;;;;45.63;41.13;;;;;;;;;;5069953;28;24415;-58
2021/10/31 03:48:17;;;;;;;44.37;40.10;;;;;;;;;;5062253;28;24936;-58
2021/10/31 03:50:42;;;;;;;44.30;39.80;;;;;;;;;;5060297;28;24394;-58
2021/10/31 03:53:07;;;;;;;45.17;40.67;;;;;;;;;;5062204;28;24478;-58
2021/10/31 03:55:32;;;;;;;46.15;41.55;;;;;;;;;;5069203;28;24983;-59
2021/10/31 03:57:58;;;;;;;43.85;39.45;;;;;;;;;;5066370;28;24397;-58
2021/10/31 04:00:23;;;;;;;44.60;40.30;;;;;;;;;;5067696;28;24427;-58
2021/10/31 04:02:48;;;;;;;45.73;41.13;;;;;;;;;;5061760;28;24410;-58
2021/10/31 04:05:13;;;;;;;42.00;37.87;;;;;;;;;;5079796;28;24422;-58
2021/10/31 04:07:39;;;;;;;45.73;41.33;;;;;;;;;;5060558;28;24479;-58
2021/10/31 04:10:05;;;;;;;43.40;39.22;;;;;;;;;;5076264;28;24448;-58
2021/10/31 04:12:30;;;;;;;46.17;41.58;;;;;;;;;;5064178;28;24952;-58
2021/10/31 04:14:56;;;;;;;47.35;42.58;;;;;;;;;;5078283;28;24773;-59
2021/10/31 04:17:21;;;;;;;44.63;40.20;;;;;;;;;;5062730;28;24472;-59
2021/10/31 04:19:46;;;;;;;45.37;40.87;;;;;;;;;;5071379;28;24599;-59
2021/10/31 04:22:11;;;;;;;46.37;41.97;;;;;;;;;;5071474;28;24445;-59
2021/10/31 04:24:37;;;;;;;43.03;38.77;;;;;;;;;;5074928;28;24418;-59
2021/10/31 04:27:02;;;;;;;46.83;42.13;;;;;;;;;;5072203;28;24432;-59
2021/10/31 04:29:28;;;;;;;46.38;41.78;;;;;;;;;;5077648;28;24410;-59
2021/10/31 04:31:54;;;;;;;44.28;39.88;;;;;;;;;;5069532;28;25093;-59
2021/10/31 04:34:19;;;;;;;45.70;41.25;;;;;;;;;;5059883;28;24398;-59
2021/10/31 04:36:44;;;;;;;44.57;39.97;;;;;;;;;;5074414;28;25267;-59
2021/10/31 04:39:10;;;;;;;47.65;43.03;;;;;;;;;;5072131;28;24426;-60
2021/10/31 04:41:35;;;;;;;44.93;40.47;;;;;;;;;;5070006;28;24501;-59
2021/10/31 04:44:02;;;;;;;47.70;42.95;;;;;;;;;;5060938;28;24438;-59
2021/10/31 04:46:27;;;;;;;47.60;43.00;;;;;;;;;;5076177;28;24410;-59
2021/10/31 04:48:53;;;;;;;46.42;41.70;;;;;;;;;;5068693;28;24437;-58
2021/10/31 04:51:18;;;;;;;47.80;43.00;;;;;;;;;;5066496;28;24824;-58
2021/10/31 04:53:43;;;;;;;45.80;41.20;;;;;;;;;;5073412;28;24803;-58
2021/10/31 04:56:08;;;;;;;43.87;39.47;;;;;;;;;;5074732;28;24504;-59
2021/10/31 04:58:34;;;;;;;46.43;41.93;;;;;;;;;;5080161;28;24426;-57
2021/10/31 05:00:59;;;;;;;46.88;42.25;;;;;;;;;;5069750;28;24410;-58
2021/10/31 05:03:24;;;;;;;47.50;42.80;;;;;;;;;;5072238;28;24437;-58
2021/10/31 05:05:49;;;;;;;46.70;42.08;;;;;;;;;;5076566;28;24451;-60
2021/10/31 05:08:14;;;;;;;46.28;41.78;;;;;;;;;;5079874;28;24433;-58
2021/10/31 05:10:40;;;;;;;47.58;42.80;;;;;;;;;;5077571;28;24398;-58
2021/10/31 05:13:05;;;;;;;47.23;42.50;;;;;;;;;;5084430;28;24406;-58
2021/10/31 05:15:30;;;;;;;47.90;43.00;;;;;;;;;;5074650;28;25083;-58
2021/10/31 05:17:56;;;;;;;43.23;39.00;;;;;;;;;;5080052;28;24406;-59
2021/10/31 05:20:21;;;;;;;47.10;42.60;;;;;;;;;;5068279;28;24418;-58
2021/10/31 05:22:46;;;;;;;44.00;39.90;;;;;;;;;;5071063;28;24398;-58
2021/10/31 05:25:12;;;;;;;41.95;37.67;;;;;;;;;;5062943;28;24525;-58
2021/10/31 05:27:37;;;;;;;44.80;40.33;;;;;;;;;;5068442;28;24917;-59
2021/10/31 05:30:04;;;;;;;50.87;45.77;;;;;;;;;;5077755;28;24544;-59
2021/10/31 05:32:33;;;;;;;46.30;41.60;;;;;;;;;;5082966;28;24438;-59
2021/10/31 05:34:59;;;;;;;45.65;41.20;;;;;;;;;;5068438;28;24414;-59
2021/10/31 05:37:31;;;;;;;45.10;40.70;;;;;;;;;;5076362;28;24475;-58
2021/10/31 05:39:56;;;;;;;42.30;38.20;;;;;;;;;;5077892;28;24434;-58
2021/10/31 05:42:21;;;;;;;44.90;40.50;;;;;;;;;;5060833;28;24419;-59
2021/10/31 05:44:46;;;;;;;42.05;37.85;;;;;;;;;;5073034;28;25015;-60
2021/10/31 05:47:11;;;;;;;44.08;39.80;;;;;;;;;;5072183;28;24995;-60
2021/10/31 05:49:37;;;;;;;43.92;39.63;;;;;;;;;;5081588;28;24402;-60
2021/10/31 05:52:04;;;;;;;45.20;40.80;;;;;;;;;;5075646;28;24509;-60
2021/10/31 05:54:29;;;;;;;44.23;40.03;;;;;;;;;;5065178;28;24414;-60
2021/10/31 05:56:54;;;;;;;46.45;41.85;;;;;;;;;;5077000;28;24529;-59
2021/10/31 05:59:19;;;;;;;47.38;42.47;;;;;;;;;;5063657;28;24528;-60
2021/10/31 06:01:44;;;;;;;46.90;42.17;;;;;;;;;;5085299;28;24416;-60
2021/10/31 06:04:09;;;;;;;48.20;43.40;;;;;;;;;;5099657;28;25025;-59
2021/10/31 06:06:35;;;;;;;47.22;42.60;;;;;;;;;;5078907;28;24421;-60
2021/10/31 06:09:00;;;;;;;48.20;43.20;;;;;;;;;;5060957;28;24505;-59
2021/10/31 06:11:26;;;;;;;44.55;40.03;;;;;;;;;;5059548;28;24419;-59
2021/10/31 06:13:54;;;;;;;44.53;40.13;;;;;;;;;;5077909;28;25071;-59
2021/10/31 06:16:19;;;;;;;45.25;40.85;;;;;;;;;;5064411;28;25035;-59
2021/10/31 06:18:44;;;;;;;45.28;40.70;;;;;;;;;;5066745;28;24522;-59
2021/10/31 06:21:09;;;;;;;47.20;42.50;;;;;;;;;;5072837;28;24783;-60
2021/10/31 06:23:35;;;;;;;46.03;41.50;;;;;;;;;;5070232;28;24406;-59
2021/10/31 06:26:01;;;;;;;42.40;38.10;;;;;;;;;;5063004;28;24516;-58
2021/10/31 06:28:26;;;;;;;46.63;42.15;;;;;;;;;;5079413;28;24966;-58
2021/10/31 06:30:51;;;;;;;45.43;41.00;;;;;;;;;;5078493;28;24610;-62
2021/10/31 06:33:17;;;;;;;44.28;39.83;;;;;;;;;;5063435;28;24425;-62
2021/10/31 06:35:42;;;;;;;46.03;41.42;;;;;;;;;;5058268;28;24443;-61
2021/10/31 06:38:07;;;;;;;44.22;40.03;;;;;;;;;;5073998;28;24975;-62
2021/10/31 06:40:32;;;;;;;44.47;40.17;;;;;;;;;;5096996;28;24471;-60
2021/10/31 06:42:57;;;;;;;46.60;42.00;;;;;;;;;;5073785;28;24496;-60
2021/10/31 06:45:23;;;;;;;44.77;40.37;;;;;;;;;;5066003;28;24456;-59
2021/10/31 06:47:48;;;;;;;42.07;37.97;;;;;;;;;;5068169;28;24422;-59
2021/10/31 06:50:13;;;;;;;44.72;40.42;;;;;;;;;;5079106;28;24418;-59
2021/10/31 06:52:38;;;;;;;46.57;41.97;;;;;;;;;;5078021;28;25348;-59
2021/10/31 06:55:05;;;;;;;46.80;42.30;;;;;;;;;;5074808;28;24488;-59
2021/10/31 06:57:31;;;;;;;44.42;40.08;;;;;;;;;;5075906;28;25036;-59
2021/10/31 06:59:56;;;;;;;46.70;42.00;;;;;;;;;;5060491;28;24439;-59
2021/10/31 07:02:21;;;;;;;46.97;42.17;;;;;;;;;;5066961;28;25005;-58
2021/10/31 07:04:46;;;;;;;46.60;42.13;;;;;;;;;;5075989;28;24497;-59
2021/10/31 07:07:13;;;;;;;47.55;43.03;;;;;;;;;;5078710;28;24426;-59
2021/10/31 07:09:38;;;;;;;45.83;41.22;;;;;;;;;;5067165;28;24415;-59
2021/10/31 07:12:04;;;;;;;46.47;41.90;;;;;;;;;;5054355;28;24426;-59
2021/10/31 07:14:29;;;;;;;46.80;42.07;;;;;;;;;;5060648;28;24429;-59
2021/10/31 07:16:54;;;;;;;45.20;40.60;;;;;;;;;;5070230;28;24410;-59
2021/10/31 07:19:19;;;;;;;45.10;40.40;;;;;;;;;;5065102;28;24426;-59
2021/10/31 07:21:45;;;;;;;42.70;38.40;;;;;;;;;;5067293;28;24861;-59
2021/10/31 07:24:10;;;;;;;43.83;39.30;;;;;;;;;;5067341;28;24420;-59
2021/10/31 07:26:35;;;;;;;45.63;41.20;;;;;;;;;;5055630;28;24797;-59
2021/10/31 07:29:09;;;;;;;45.20;40.90;;;;;;;;;;5058507;28;24411;-59
2021/10/31 07:31:36;;;;;;;44.63;40.30;;;;;;;;;;5060665;28;24809;-60
2021/10/31 07:34:02;;;;;;;43.30;38.90;;;;;;;;;;5073713;28;24968;-60
2021/10/31 07:36:27;;;;;;;45.03;40.63;;;;;;;;;;5066223;28;24426;-60
2021/10/31 07:38:52;;;;;;;43.17;38.97;;;;;;;;;;5064652;28;24553;-60
2021/10/31 07:41:18;;;;;;;45.60;41.00;;;;;;;;;;5070932;28;25089;-60
2021/10/31 07:43:43;;;;;;;42.67;38.47;;;;;;;;;;5062088;28;25110;-60
2021/10/31 07:46:08;;;;;;;42.00;37.80;;;;;;;;;;5069182;28;24556;-60
2021/10/31 07:48:33;;;;;;;40.93;37.07;;;;;;;;;;5057820;28;24820;-59
2021/10/31 07:51:00;;;;;;;42.53;38.43;;;;;;;;;;5072498;28;25028;-60
2021/10/31 07:53:25;;;;;;;43.15;38.75;;;;;;;;;;5072966;28;24505;-60
2021/10/31 07:55:52;;;;;;;42.60;38.40;;;;;;;;;;5065423;28;24568;-60
2021/10/31 07:58:20;;;;;;;45.28;40.78;;;;;;;;;;5069856;28;24450;-60
2021/10/31 08:00:46;;;;;;;43.83;39.53;;;;;;;;;;5074985;28;24951;-61
2021/10/31 08:03:11;;;;;;;43.17;38.80;;;;;;;;;;5065542;28;24421;-59
2021/10/31 08:05:38;;;;;;;43.10;38.90;;;;;;;;;;5070230;28;24498;-59
2021/10/31 08:08:03;;;;;;;43.42;39.13;;;;;;;;;;5054348;28;25094;-58
2021/10/31 08:10:28;;;;;;;42.27;38.30;;;;;;;;;;5072865;28;24517;-59
2021/10/31 08:12:53;;;;;;;42.80;38.70;;;;;;;;;;5073462;28;24541;-59
2021/10/31 08:15:18;;;;;;;43.25;39.13;;;;;;;;;;5076081;28;25011;-60
2021/10/31 08:17:44;;;;;;;42.87;38.67;;;;;;;;;;5073902;28;24944;-60
2021/10/31 08:20:10;;;;;;;44.23;40.03;;;;;;;;;;5070614;28;24430;-59
2021/10/31 08:22:35;;;;;;;43.10;39.00;;;;;;;;;;5068054;28;24776;-59
2021/10/31 08:25:01;;;;;;;42.60;38.45;;;;;;;;;;5070261;28;24414;-60
2021/10/31 08:27:28;;;;;;;43.15;38.85;;;;;;;;;;5074959;28;24421;-60
2021/10/31 08:29:53;;;;;;;41.72;37.63;;;;;;;;;;5068405;28;24737;-59
2021/10/31 08:32:19;;;;;;;41.97;37.87;;;;;;;;;;5065929;28;25019;-60
2021/10/31 08:34:44;;;;;;;42.63;38.53;;;;;;;;;;5074940;28;24511;-60
2021/10/31 08:37:09;;;;;;;44.38;40.08;;;;;;;;;;5076939;28;24499;-60
2021/10/31 08:39:34;;;;;;;45.38;40.88;;;;;;;;;;5077600;28;24437;-60
2021/10/31 08:42:00;;;;;;;44.40;40.10;;;;;;;;;;5065350;28;24750;-60
2021/10/31 08:44:25;;;;;;;43.33;39.03;;;;;;;;;;5063099;28;24507;-60
2021/10/31 08:46:50;;;;;;;43.55;39.35;;;;;;;;;;5068327;28;24402;-60
2021/10/31 08:49:15;;;;;;;41.30;37.20;;;;;;;;;;5081434;28;24433;-61
2021/10/31 08:51:41;;;;;;;42.92;38.63;;;;;;;;;;5075450;28;24483;-59
2021/10/31 08:54:06;;;;;;;42.65;38.60;;;;;;;;;;5065265;28;24899;-59
2021/10/31 08:56:31;;;;;;;41.67;37.67;;;;;;;;;;5063158;28;24395;-59
2021/10/31 08:58:57;;;;;;;38.27;34.47;;;;;;;;;;5088104;28;24533;-59
2021/10/31 09:01:22;;;;;;;40.40;36.50;;;;;;;;;;5086766;28;24410;-60
2021/10/31 09:03:49;;;;;;;43.20;39.10;;;;;;;;;;5083012;28;24401;-59
2021/10/31 09:06:14;;;;;;;40.63;36.72;;;;;;;;;;5083071;28;24561;-58
2021/10/31 09:08:40;;;;;;;40.92;36.92;;;;;;;;;;5084870;28;24540;-59
2021/10/31 09:11:05;;;;;;;40.10;36.20;;;;;;;;;;5085411;28;24386;-60
2021/10/31 09:13:30;;;;;;;41.63;37.73;;;;;;;;;;5071715;28;25488;-60
2021/10/31 09:15:55;;;;;;;39.43;35.63;;;;;;;;;;5058964;28;24804;-58
2021/10/31 09:18:21;;;;;;;39.50;35.67;;;;;;;;;;5060730;28;25086;-59
2021/10/31 09:20:46;;;;;;;38.90;35.10;;;;;;;;;;5064479;28;24379;-58
2021/10/31 09:23:12;;;;;;;38.80;35.07;;;;;;;;;;5069809;28;24933;-59
2021/10/31 09:25:37;;;;;;;40.03;36.30;;;;;;;;;;5082434;28;24779;-59
2021/10/31 09:28:03;;;;;;;37.80;34.30;;;;;;;;;;5079201;28;24452;-59
2021/10/31 09:30:29;;;;;;;37.57;33.97;;;;;;;;;;5082628;28;24444;-59
2021/10/31 09:32:54;;;;;;;38.28;34.75;;;;;;;;;;5084542;28;24832;-59
2021/10/31 09:35:27;;;;;;;38.73;35.07;;;;;;;;;;5082357;28;24506;-59
2021/10/31 09:37:56;;;;;;;37.80;34.00;;;;;;;;;;5074716;28;24534;-59
2021/10/31 09:40:23;;;;;;;38.13;34.53;;;;;;;;;;5058620;28;24449;-59
2021/10/31 09:42:50;;;;;;;39.60;36.00;;;;;;;;;;5059617;28;24391;-59
2021/10/31 09:45:15;;;;;;;37.17;33.78;;;;;;;;;;5060083;28;24439;-60
2021/10/31 09:47:41;;;;;;;38.13;34.43;;;;;;;;;;5067440;28;24441;-59
2021/10/31 09:50:06;;;;;;;38.90;35.20;;;;;;;;;;5084401;28;24390;-58
2021/10/31 09:52:32;;;;;;;37.23;33.73;;;;;;;;;;5079342;28;24475;-59
2021/10/31 09:54:57;;;;;;;36.13;32.83;;;;;;;;;;5076687;28;24398;-59
2021/10/31 09:57:22;;;;;;;37.77;34.27;;;;;;;;;;5092605;28;24394;-60
2021/10/31 09:59:54;;;;;;;33.37;30.30;;;;;;;;;;5087641;28;24517;-60
2021/10/31 10:02:37;;;;;;;37.17;33.70;;;;;;;;;;5083887;28;24932;-60
2021/10/31 10:05:02;;;;;;;36.25;32.75;;;;;;;;;;5080209;28;24395;-60
2021/10/31 10:07:28;;;;;;;35.60;32.20;;;;;;;;;;5080126;28;24447;-60
2021/10/31 10:09:54;;;;;;;36.17;32.97;;;;;;;;;;5082148;28;24397;-60
2021/10/31 10:12:20;;;;;;;35.10;31.70;;;;;;;;;;5081558;28;24540;-60
2021/10/31 10:14:55;;;;;;;35.20;31.80;;;;;;;;;;5083657;28;24426;-60
2021/10/31 10:17:21;;;;;;;35.63;32.13;;;;;;;;;;5081902;28;24501;-60
2021/10/31 10:19:48;;;;;;;32.60;29.60;;;;;;;;;;5079964;28;24525;-59
2021/10/31 10:22:17;;;;;;;32.05;29.05;;;;;;;;;;5077603;28;24414;-60
2021/10/31 10:24:51;;;;;;;35.72;32.42;;;;;;;;;;5080924;28;24414;-59
2021/10/31 10:27:17;;;;;;;34.70;31.30;;;;;;;;;;5083305;28;24936;-59
2021/10/31 10:29:42;;;;;;;35.03;31.73;;;;;;;;;;5081708;28;24412;-60
2021/10/31 10:32:09;;;;;;;32.23;29.17;;;;;;;;;;5079441;28;24430;-60
2021/10/31 10:34:37;;;;;;;37.30;33.72;;;;;;;;;;5075598;28;25082;-59
2021/10/31 10:37:08;;;;;;;35.00;31.70;;;;;;;;;;5083567;28;24410;-59
2021/10/31 10:39:34;;;;;;;36.00;32.50;;;;;;;;;;5081577;28;24406;-59
2021/10/31 10:41:59;;;;;;;38.13;34.47;;;;;;;;;;5082769;28;24393;-59
2021/10/31 10:44:28;;;;;;;36.45;33.08;;;;;;;;;;5079539;28;25163;-60
2021/10/31 10:46:56;;;;;;;34.57;31.37;;;;;;;;;;5075288;28;25091;-59
2021/10/31 10:49:22;;;;;;;36.40;32.90;;;;;;;;;;5058833;28;24399;-59
2021/10/31 10:52:08;;;;;;;35.40;32.10;;;;;;;;;;5062801;28;24912;-59
2021/10/31 10:54:38;;;;;;;36.10;32.55;;;;;;;;;;5059788;28;24415;-60
2021/10/31 10:57:07;;;;;;;36.70;33.30;;;;;;;;;;5091711;28;25038;-59
2021/10/31 10:59:33;;;;;;;37.80;34.10;;;;;;;;;;5078698;28;24935;-61
2021/10/31 11:02:06;;;;;;;34.83;31.52;;;;;;;;;;5083074;28;24398;-60
2021/10/31 11:04:32;;;;;;;34.10;30.80;;;;;;;;;;5080668;28;24658;-60
2021/10/31 11:06:57;;;;;;;37.80;34.22;;;;;;;;;;5082680;28;24481;-61
2021/10/31 11:09:22;;;;;;;35.50;32.10;;;;;;;;;;5079028;28;24394;-61
2021/10/31 11:11:47;;;;;;;34.40;31.10;;;;;;;;;;5077134;28;24410;-59
2021/10/31 11:14:13;;;;;;;36.28;32.83;;;;;;;;;;5078718;28;24425;-59
2021/10/31 11:16:38;;;;;;;36.33;32.73;;;;;;;;;;5078442;28;24456;-59
2021/10/31 11:19:03;;;;;;;36.05;32.65;;;;;;;;;;5071434;28;24744;-59
2021/10/31 11:21:28;;;;;;;37.60;34.20;;;;;;;;;;5080365;28;24432;-60
2021/10/31 11:23:55;;;;;;;35.60;32.17;;;;;;;;;;5062913;28;24418;-60
2021/10/31 11:26:21;;;;;;;34.83;31.42;;;;;;;;;;5058095;28;24397;-61
2021/10/31 11:28:46;;;;;;;37.42;33.90;;;;;;;;;;5062215;28;24395;-60
2021/10/31 11:31:11;;;;;;;35.70;32.40;;;;;;;;;;5061321;28;24395;-59
2021/10/31 11:33:37;;;;;;;33.47;30.37;;;;;;;;;;5065295;28;25057;-59
2021/10/31 11:36:03;;;;;;;36.60;33.20;;;;;;;;;;5078067;28;24938;-59
2021/10/31 11:38:30;;;;;;;35.50;32.20;;;;;;;;;;5078017;28;24996;-59
2021/10/31 11:40:55;;;;;;;35.35;32.00;;;;;;;;;;5081967;28;24386;-59
2021/10/31 11:43:21;;;;;;;34.00;30.77;;;;;;;;;;5080262;28;24487;-60
2021/10/31 11:45:48;;;;;;;34.30;31.13;;;;;;;;;;5079869;28;24975;-61
2021/10/31 11:48:14;;;;;;;35.85;32.55;;;;;;;;;;5076530;28;24406;-59
2021/10/31 11:50:40;;;;;;;33.63;30.33;;;;;;;;;;5076148;28;24452;-60
2021/10/31 11:53:16;;;;;;;32.83;29.83;;;;;;;;;;5081705;28;24416;-59
2021/10/31 11:55:46;;;;;;;32.22;29.13;;;;;;;;;;5097977;28;24417;-60
2021/10/31 11:58:14;;;;;;;32.97;29.80;;;;;;;;;;5099976;28;24402;-59
2021/10/31 12:00:50;;;;;;;33.08;29.98;;;;;;;;;;5075798;28;25023;-60
2021/10/31 12:03:36;;;;;;;33.90;30.70;;;;;;;;;;5078013;28;24421;-60
2021/10/31 12:06:22;;;;;;;31.88;28.88;;;;;;;;;;5066293;28;24453;-60
2021/10/31 12:08:53;;;;;;;32.47;29.27;;;;;;;;;;5066847;28;24941;-60
2021/10/31 12:11:31;;;;;;;30.30;27.50;;;;;;;;;;5080017;28;25250;-61
2021/10/31 12:13:57;;;;;;;33.47;30.20;;;;;;;;;;5076155;28;24422;-60
2021/10/31 12:16:22;;;;;;;32.50;29.35;;;;;;;;;;5079881;28;24398;-60
2021/10/31 12:18:51;;;;;;;33.10;30.00;;;;;;;;;;5081958;28;24757;-60
2021/10/31 12:21:17;;;;;;;33.57;30.40;;;;;;;;;;5079463;28;24444;-60
2021/10/31 12:23:54;;;;;;;34.85;31.65;;;;;;;;;;5061004;28;24528;-59
2021/10/31 12:26:20;;;;;;;33.10;29.92;;;;;;;;;;5055480;28;24399;-60
2021/10/31 12:28:46;;;;;;;33.13;30.13;;;;;;;;;;5057698;28;24428;-60
2021/10/31 12:31:25;;;;;;;32.93;29.73;;;;;;;;;;5058818;28;24828;-60
2021/10/31 12:34:06;;;;;;;31.80;28.80;;;;;;;;;;5062967;28;25347;-59
2021/10/31 12:36:32;;;;;;;33.85;30.65;;;;;;;;;;5078940;28;24386;-60
2021/10/31 12:38:57;;;;;;;32.50;29.47;;;;;;;;;;5079074;28;24416;-59
2021/10/31 12:41:23;;;;;;;34.10;30.70;;;;;;;;;;5077323;28;24928;-60
2021/10/31 12:43:51;;;;;;;29.95;27.15;;;;;;;;;;5075858;28;24433;-59
2021/10/31 12:46:21;;;;;;;33.33;30.23;;;;;;;;;;5076701;28;24404;-59
2021/10/31 12:48:49;;;;;;;31.52;28.45;;;;;;;;;;5060453;28;24428;-59
2021/10/31 12:51:19;;;;;;;31.42;28.52;;;;;;;;;;5060618;28;24446;-59
2021/10/31 12:53:45;;;;;;;33.00;29.80;;;;;;;;;;5078625;28;24490;-59
2021/10/31 12:56:10;;;;;;;36.10;32.70;;;;;;;;;;5072364;28;24414;-60
2021/10/31 12:58:35;;;;;;;33.40;30.27;;;;;;;;;;5070784;28;25778;-59
2021/10/31 13:01:00;;;;;;;33.67;30.47;;;;;;;;;;5070399;28;24468;-59
2021/10/31 13:03:25;;;;;;;34.20;30.95;;;;;;;;;;5087444;28;24558;-60
2021/10/31 13:05:50;;;;;;;33.73;30.47;;;;;;;;;;5068604;28;24859;-60
2021/10/31 13:08:17;;;;;;;36.80;33.30;;;;;;;;;;5071756;28;24437;-60
2021/10/31 13:10:43;;;;;;;35.30;31.90;;;;;;;;;;5072706;28;24403;-60
2021/10/31 13:13:13;;;;;;;35.40;32.10;;;;;;;;;;5068172;28;24440;-60
2021/10/31 13:15:43;;;;;;;35.95;32.45;;;;;;;;;;5067174;28;25097;-60
2021/10/31 13:18:16;;;;;;;35.03;31.63;;;;;;;;;;5078588;28;24436;-60
2021/10/31 13:20:46;;;;;;;34.75;31.45;;;;;;;;;;5082904;28;25036;-60
2021/10/31 13:23:12;;;;;;;33.25;30.15;;;;;;;;;;5083258;28;24452;-60
2021/10/31 13:25:39;;;;;;;33.38;30.17;;;;;;;;;;5072580;28;25410;-60
2021/10/31 13:28:12;;;;;;;31.90;29.00;;;;;;;;;;5065458;28;24418;-60
2021/10/31 13:30:37;;;;;;;33.47;30.27;;;;;;;;;;5066879;28;24413;-60
2021/10/31 13:33:03;;;;;;;32.43;29.33;;;;;;;;;;5064578;28;24530;-60
2021/10/31 13:35:28;;;;;;;32.57;29.47;;;;;;;;;;5062941;28;24413;-60
2021/10/31 13:38:04;;;;;;;30.70;27.80;;;;;;;;;;5069167;28;24772;-60
2021/10/31 13:40:30;;;;;;;31.00;27.98;;;;;;;;;;5074699;28;24480;-60
2021/10/31 13:42:55;;;;;;;31.60;28.70;;;;;;;;;;5076730;28;24790;-60
2021/10/31 13:45:20;;;;;;;30.13;27.33;;;;;;;;;;5073147;28;24987;-60
2021/10/31 13:47:56;;;;;;;30.65;27.73;;;;;;;;;;5064662;28;24502;-59
2021/10/31 13:50:29;;;;;;;29.92;27.17;;;;;;;;;;5077201;28;24456;-59
2021/10/31 13:52:59;;;;;;;27.83;25.23;;;;;;;;;;5091417;28;24475;-59
2021/10/31 13:55:25;;;;;;;29.20;26.50;;;;;;;;;;5068326;28;24978;-60
2021/10/31 13:57:51;;;;;;;25.80;23.38;;;;;;;;;;5063616;28;24398;-59
2021/10/31 14:00:17;;;;;;;28.03;25.33;;;;;;;;;;5071063;28;24442;-59
2021/10/31 14:02:43;;;;;;;28.58;25.88;;;;;;;;;;5072414;28;24410;-60
2021/10/31 14:05:12;;;;;;;26.25;23.85;;;;;;;;;;5074847;28;24418;-59
2021/10/31 14:07:39;;;;;;;26.55;23.95;;;;;;;;;;5064204;28;24413;-60
2021/10/31 14:10:05;;;;;;;25.20;22.80;;;;;;;;;;5062171;28;24731;-60
2021/10/31 14:12:31;;;;;;;25.05;22.75;;;;;;;;;;5064939;28;24535;-59
2021/10/31 14:15:10;;;;;;;24.33;22.13;;;;;;;;;;5073687;28;24968;-59